createdAt,value
2024-02-08T00:01:54.211Z,8.07
2024-02-08T00:04:20.976Z,11.07
2024-02-08T00:06:47.664Z,13.27
2024-02-08T00:09:14.359Z,14.25
2024-02-08T00:11:41.080Z,11.43
2024-02-08T00:14:07.824Z,11.98
2024-02-08T00:16:38.405Z,16.00
2024-02-08T00:19:05.499Z,10.57
2024-02-08T00:21:33.539Z,13.13
2024-02-08T00:24:01.280Z,8.13
2024-02-08T00:26:28.029Z,10.60
2024-02-08T00:28:54.767Z,16.38
2024-02-08T00:31:21.499Z,15.27
2024-02-08T00:33:49.521Z,16.58
2024-02-08T00:36:16.379Z,10.95
2024-02-08T00:38:46.259Z,11.88
2024-02-08T00:41:13.050Z,11.52
2024-02-08T00:43:40.453Z,18.50
2024-02-08T00:46:07.833Z,15.48
2024-02-08T00:48:34.601Z,12.63
2024-02-08T00:51:01.359Z,14.13
2024-02-08T00:53:27.995Z,9.48
2024-02-08T00:55:54.682Z,10.30
2024-02-08T00:58:23.114Z,10.32
2024-02-08T01:00:50.035Z,12.73
2024-02-08T01:03:16.925Z,12.48
2024-02-08T01:05:44.226Z,11.63
2024-02-08T01:08:11.180Z,11.38
2024-02-08T01:10:37.924Z,11.02
2024-02-08T01:13:05.729Z,12.07
2024-02-08T01:15:32.444Z,14.93
2024-02-08T01:17:59.836Z,14.73
2024-02-08T01:20:28.853Z,8.93
2024-02-08T01:22:55.767Z,10.10
2024-02-08T01:25:22.656Z,12.35
2024-02-08T01:27:49.369Z,15.52
2024-02-08T01:30:16.141Z,11.40
2024-02-08T01:32:43.191Z,11.98
2024-02-08T01:35:12.845Z,10.57
2024-02-08T01:37:40.116Z,10.52
2024-02-08T01:40:17.460Z,15.90
2024-02-08T01:42:45.176Z,12.57
2024-02-08T01:45:35.781Z,17.77
2024-02-08T01:48:12.193Z,12.55
2024-02-08T01:50:48.092Z,14.02
2024-02-08T01:53:19.590Z,13.90
2024-02-08T01:55:53.467Z,13.05
2024-02-08T01:58:22.485Z,19.63
2024-02-08T02:00:51.806Z,9.10
2024-02-08T02:03:20.855Z,13.65
2024-02-08T02:05:48.529Z,15.40
2024-02-08T02:08:22.755Z,15.48
2024-02-08T02:11:07.884Z,13.10
2024-02-08T02:13:38.853Z,12.43
2024-02-08T02:16:06.502Z,11.70
2024-02-08T02:18:33.290Z,13.63
2024-02-08T02:21:00.063Z,18.05
2024-02-08T02:23:26.982Z,19.95
2024-02-08T02:25:54.455Z,13.20
2024-02-08T02:28:22.333Z,13.48
2024-02-08T02:30:51.352Z,15.55
2024-02-08T02:33:20.668Z,18.92
2024-02-08T02:35:50.786Z,14.73
2024-02-08T02:38:19.272Z,16.67
2024-02-08T02:40:47.902Z,17.00
2024-02-08T02:43:15.594Z,15.15
2024-02-08T02:45:42.619Z,12.80
2024-02-08T02:48:09.905Z,16.48
2024-02-08T02:50:43.601Z,14.80
2024-02-08T02:53:11.509Z,16.65
2024-02-08T02:55:38.849Z,16.10
2024-02-08T02:58:05.993Z,11.55
2024-02-08T03:00:35.918Z,13.68
2024-02-08T03:03:13.850Z,14.35
2024-02-08T03:05:47.322Z,11.20
2024-02-08T03:08:14.388Z,13.90
2024-02-08T03:10:43.823Z,18.27
2024-02-08T03:13:11.672Z,17.35
2024-02-08T03:15:38.703Z,12.30
2024-02-08T03:18:06.065Z,14.57
2024-02-08T03:20:32.775Z,15.82
2024-02-08T03:23:00.416Z,15.27
2024-02-08T03:25:27.415Z,10.75
2024-02-08T03:27:54.323Z,20.98
2024-02-08T03:30:32.300Z,12.43
2024-02-08T03:33:00.244Z,13.25
2024-02-08T03:35:31.061Z,11.45
2024-02-08T03:38:02.256Z,13.15
2024-02-08T03:40:33.690Z,19.23
2024-02-08T03:43:01.720Z,13.63
2024-02-08T03:45:28.999Z,11.00
2024-02-08T03:48:01.281Z,12.35
2024-02-08T03:50:35.573Z,14.95
2024-02-08T03:53:06.001Z,13.95
2024-02-08T03:55:33.541Z,16.65
2024-02-08T03:58:01.844Z,13.25
2024-02-08T04:00:29.697Z,17.40
2024-02-08T04:03:00.409Z,11.77
2024-02-08T04:05:46.028Z,11.82
2024-02-08T04:08:32.765Z,14.25
2024-02-08T04:10:59.662Z,13.10
2024-02-08T04:13:45.714Z,10.10
2024-02-08T04:16:51.479Z,13.90
2024-02-08T04:19:36.703Z,10.77
2024-02-08T04:22:22.246Z,14.10
2024-02-08T04:25:07.749Z,13.40
2024-02-08T04:27:53.266Z,13.25
2024-02-08T04:30:38.784Z,9.65
2024-02-08T04:33:24.409Z,15.38
2024-02-08T04:36:10.001Z,9.30
2024-02-08T04:38:57.993Z,11.82
2024-02-08T04:41:43.449Z,11.18
2024-02-08T04:44:29.086Z,13.75
2024-02-08T04:47:14.433Z,10.93
2024-02-08T04:50:00.296Z,12.50
2024-02-08T04:52:45.607Z,10.93
2024-02-08T04:55:12.533Z,8.23
2024-02-08T04:57:40.525Z,12.75
2024-02-08T05:00:13.839Z,16.45
2024-02-08T05:02:41.748Z,13.32
2024-02-08T05:05:12.437Z,18.85
2024-02-08T05:07:39.953Z,12.27
2024-02-08T05:10:09.976Z,9.35
2024-02-08T05:12:37.173Z,10.02
2024-02-08T05:15:04.139Z,13.32
2024-02-08T05:17:31.188Z,9.20
2024-02-08T05:19:58.393Z,8.13
2024-02-08T05:22:25.117Z,20.30
2024-02-08T05:24:51.835Z,13.25
2024-02-08T05:27:18.603Z,11.18
2024-02-08T05:29:47.760Z,12.75
2024-02-08T05:32:14.483Z,13.80
2024-02-08T05:34:41.449Z,12.30
2024-02-08T05:37:08.361Z,12.38
2024-02-08T05:39:37.845Z,12.95
2024-02-08T05:42:05.118Z,12.75
2024-02-08T05:44:33.503Z,13.48
2024-02-08T05:47:07.892Z,13.45
2024-02-08T05:49:34.777Z,16.98
2024-02-08T05:52:07.849Z,16.40
2024-02-08T05:54:38.263Z,15.60
2024-02-08T05:57:08.141Z,15.95
2024-02-08T05:59:38.077Z,10.00
2024-02-08T06:02:15.115Z,8.52
2024-02-08T06:04:42.444Z,16.60
2024-02-08T06:07:09.460Z,11.13
2024-02-08T06:09:48.647Z,11.60
2024-02-08T06:12:29.322Z,9.52
2024-02-08T06:15:15.374Z,11.68
2024-02-08T06:17:46.897Z,16.98
2024-02-08T06:20:16.073Z,16.25
2024-02-08T06:22:45.057Z,16.63
2024-02-08T06:25:30.225Z,11.98
2024-02-08T06:27:59.312Z,13.75
2024-02-08T06:30:32.207Z,17.48
2024-02-08T06:33:09.644Z,17.63
2024-02-08T06:35:37.411Z,14.43
2024-02-08T06:38:04.485Z,20.15
2024-02-08T06:40:50.730Z,15.48
2024-02-08T06:43:22.017Z,12.30
2024-02-08T06:45:52.995Z,22.13
2024-02-08T06:48:35.542Z,20.63
2024-02-08T06:51:22.255Z,14.95
2024-02-08T06:54:07.883Z,12.68
2024-02-08T06:56:53.255Z,16.58
2024-02-08T06:59:39.363Z,13.63
2024-02-08T07:02:24.702Z,12.20
2024-02-08T07:05:13.179Z,20.08
2024-02-08T07:08:00.137Z,15.95
2024-02-08T07:10:45.638Z,11.23
2024-02-08T07:13:31.048Z,17.02
2024-02-08T07:16:16.624Z,16.75
2024-02-08T07:19:06.959Z,12.25
2024-02-08T07:21:54.531Z,11.38
2024-02-08T07:24:40.091Z,12.52
2024-02-08T07:27:25.477Z,9.75
2024-02-08T07:30:10.950Z,14.35
2024-02-08T07:32:56.439Z,10.27
2024-02-08T07:35:41.915Z,12.38
2024-02-08T07:38:09.122Z,10.38
2024-02-08T07:40:36.709Z,11.40
2024-02-08T07:43:16.674Z,14.38
2024-02-08T07:45:49.649Z,10.60
2024-02-08T07:48:36.545Z,12.02
2024-02-08T07:51:04.317Z,12.38
2024-02-08T07:53:46.976Z,22.60
2024-02-08T07:56:30.523Z,8.98
2024-02-08T07:59:05.878Z,15.55
2024-02-08T08:01:39.773Z,11.75
2024-02-08T08:04:11.167Z,22.77
2024-02-08T08:06:51.793Z,11.73
2024-02-08T08:09:22.947Z,12.88
2024-02-08T08:11:53.064Z,16.35
2024-02-08T08:14:38.969Z,13.90
2024-02-08T08:17:09.402Z,10.05
2024-02-08T08:19:40.452Z,14.38
2024-02-08T08:22:40.489Z,13.90
2024-02-08T08:25:13.297Z,9.45
2024-02-08T08:27:54.773Z,8.93
2024-02-08T08:30:32.843Z,10.07
2024-02-08T08:33:01.404Z,13.75
2024-02-08T08:35:40.760Z,13.77
2024-02-08T08:38:26.152Z,14.70
2024-02-08T08:41:01.791Z,10.43
2024-02-08T08:43:32.744Z,8.88
2024-02-08T08:46:02.802Z,18.67
2024-02-08T08:48:34.882Z,21.33
2024-02-08T08:51:12.641Z,13.05
2024-02-08T08:53:48.548Z,6.45
2024-02-08T08:56:15.252Z,20.55
2024-02-08T08:58:42.996Z,16.38
2024-02-08T09:01:20.073Z,9.50
2024-02-08T09:03:58.239Z,13.80
2024-02-08T09:06:27.809Z,16.60
2024-02-08T09:08:58.160Z,15.10
2024-02-08T09:11:26.169Z,14.65
2024-02-08T09:13:54.331Z,19.58
2024-02-08T09:16:25.806Z,16.75
2024-02-08T09:19:01.390Z,7.10
2024-02-08T09:21:37.206Z,21.15
2024-02-08T09:24:05.131Z,15.13
2024-02-08T09:26:57.930Z,13.90
2024-02-08T09:29:31.440Z,20.75
2024-02-08T09:32:16.846Z,15.48
2024-02-08T09:34:44.570Z,16.02
2024-02-08T09:37:12.301Z,14.75
2024-02-08T09:39:59.605Z,17.17
2024-02-08T09:42:31.317Z,14.18
2024-02-08T09:45:17.838Z,15.85
2024-02-08T09:47:53.667Z,17.60
2024-02-08T09:50:32.338Z,11.45
2024-02-08T09:53:08.559Z,13.77
2024-02-08T09:55:35.631Z,11.13
2024-02-08T09:58:05.958Z,16.92
2024-02-08T10:00:56.170Z,16.70
2024-02-08T10:03:33.501Z,14.40
2024-02-08T10:06:13.677Z,14.02
2024-02-08T10:08:52.179Z,16.00
2024-02-08T10:11:37.345Z,4.70
2024-02-08T10:14:07.456Z,9.02
2024-02-08T10:16:43.884Z,16.60
2024-02-08T10:19:29.211Z,18.13
2024-02-08T10:22:01.882Z,15.32
2024-02-08T10:24:47.674Z,17.67
2024-02-08T10:27:20.830Z,18.55
2024-02-08T10:30:06.456Z,14.90
2024-02-08T10:32:38.353Z,14.95
2024-02-08T10:35:15.008Z,12.50
2024-02-08T10:37:50.284Z,12.48
2024-02-08T10:40:30.212Z,15.27
2024-02-08T10:43:00.107Z,13.57
2024-02-08T10:45:34.466Z,21.02
2024-02-08T10:48:04.211Z,12.10
2024-02-08T10:50:35.912Z,11.63
2024-02-08T10:53:05.877Z,12.38
2024-02-08T10:55:38.296Z,10.43
2024-02-08T10:58:11.136Z,16.35
2024-02-08T11:00:42.454Z,17.67
2024-02-08T11:03:16.555Z,15.93
2024-02-08T11:06:00.000Z,12.97
2024-02-08T11:08:51.236Z,17.02
2024-02-08T11:11:22.284Z,15.48
2024-02-08T11:13:55.101Z,14.40
2024-02-08T11:16:29.087Z,16.50
2024-02-08T11:18:56.760Z,15.30
2024-02-08T11:21:29.887Z,20.70
2024-02-08T11:23:58.332Z,13.18
2024-02-08T11:26:28.328Z,10.25
2024-02-08T11:29:19.953Z,18.48
2024-02-08T11:31:47.762Z,13.32
2024-02-08T11:34:16.150Z,17.27
2024-02-08T11:36:44.204Z,21.13
2024-02-08T11:39:29.963Z,10.00
2024-02-08T11:42:06.610Z,16.10
2024-02-08T11:44:44.721Z,18.15
2024-02-08T11:47:21.261Z,17.60
2024-02-08T11:49:55.831Z,18.98
2024-02-08T11:52:24.817Z,12.68
2024-02-08T11:55:03.253Z,17.38
2024-02-08T11:57:37.907Z,14.60
2024-02-08T12:00:18.396Z,15.02
2024-02-08T12:02:58.615Z,15.27
2024-02-08T12:05:28.866Z,12.15
2024-02-08T12:08:09.936Z,24.83
2024-02-08T12:10:39.319Z,5.00
2024-02-08T12:13:06.468Z,5.53
2024-02-08T12:15:36.239Z,20.35
2024-02-08T12:18:06.674Z,13.60
2024-02-08T12:20:34.331Z,12.77
2024-02-08T12:23:03.063Z,12.55
2024-02-08T12:25:30.313Z,14.45
2024-02-08T12:28:06.131Z,17.10
2024-02-08T12:30:37.476Z,18.50
2024-02-08T12:33:09.108Z,15.52
2024-02-08T12:35:42.236Z,16.88
2024-02-08T12:38:12.705Z,11.98
2024-02-08T12:40:40.735Z,14.38
2024-02-08T12:43:09.618Z,15.20
2024-02-08T12:45:39.053Z,17.75
2024-02-08T12:48:09.166Z,15.73
2024-02-08T12:50:39.150Z,13.82
2024-02-08T12:53:14.656Z,20.33
2024-02-08T12:55:41.694Z,20.75
2024-02-08T12:58:14.584Z,14.90
2024-02-08T13:00:41.546Z,12.80
2024-02-08T13:03:10.158Z,19.08
2024-02-08T13:05:42.712Z,18.30
2024-02-08T13:08:10.760Z,18.50
2024-02-08T13:10:40.131Z,15.80
2024-02-08T13:13:12.480Z,10.32
2024-02-08T13:16:10.383Z,11.77
2024-02-08T13:18:39.536Z,14.45
2024-02-08T13:21:11.275Z,12.00
2024-02-08T13:23:40.004Z,14.88
2024-02-08T13:26:13.156Z,17.13
2024-02-08T13:28:43.229Z,17.17
2024-02-08T13:31:10.449Z,19.90
2024-02-08T13:33:39.782Z,13.40
2024-02-08T13:36:10.282Z,11.63
2024-02-08T13:38:40.133Z,19.50
2024-02-08T13:41:11.161Z,12.80
2024-02-08T13:43:40.441Z,7.38
2024-02-08T13:46:08.563Z,10.68
2024-02-08T13:48:35.841Z,13.35
2024-02-08T13:51:07.997Z,9.68
2024-02-08T13:53:36.876Z,12.45
2024-02-08T13:56:06.994Z,13.55
2024-02-08T13:58:37.871Z,8.32
2024-02-08T14:01:05.838Z,9.85
2024-02-08T14:03:33.473Z,7.47
2024-02-08T14:06:02.349Z,7.28
2024-02-08T14:08:30.991Z,11.07
2024-02-08T14:11:01.647Z,3.10
2024-02-08T14:13:35.923Z,9.05
2024-02-08T14:16:08.089Z,9.18
2024-02-08T14:18:39.000Z,8.90
2024-02-08T14:21:09.829Z,3.63
2024-02-08T14:23:41.970Z,7.25
2024-02-08T14:26:09.754Z,6.32
2024-02-08T14:28:47.072Z,8.25
2024-02-08T14:31:17.984Z,9.30
2024-02-08T14:33:48.651Z,3.60
2024-02-08T14:36:19.077Z,9.35
2024-02-08T14:38:46.856Z,8.75
2024-02-08T14:41:27.775Z,9.52
2024-02-08T14:43:55.842Z,11.50
2024-02-08T14:46:27.257Z,6.85
2024-02-08T14:48:55.038Z,6.10
2024-02-08T14:51:24.822Z,2.92
2024-02-08T14:53:55.232Z,3.50
2024-02-08T14:56:22.402Z,4.22
2024-02-08T14:59:13.063Z,6.03
2024-02-08T15:01:40.851Z,5.45
2024-02-08T15:04:18.793Z,4.30
2024-02-08T15:07:05.173Z,1.42
2024-02-08T15:09:36.301Z,5.18
2024-02-08T15:12:30.767Z,2.15
2024-02-08T15:14:57.494Z,5.82
2024-02-08T15:17:24.605Z,7.22
2024-02-08T15:19:53.553Z,4.75
2024-02-08T15:22:30.689Z,2.13
2024-02-08T15:24:59.017Z,6.07
2024-02-08T15:27:32.890Z,3.45
2024-02-08T15:30:12.409Z,3.10
2024-02-08T15:33:02.675Z,5.35
2024-02-08T15:35:38.538Z,3.67
2024-02-08T15:38:18.436Z,6.10
2024-02-08T15:41:08.021Z,3.33
2024-02-08T15:43:37.482Z,5.50
2024-02-08T15:46:05.768Z,5.63
2024-02-08T15:48:35.687Z,3.53
2024-02-08T15:51:13.511Z,2.78
2024-02-08T15:53:51.066Z,5.45
2024-02-08T15:56:21.432Z,3.55
2024-02-08T15:59:02.845Z,5.68
2024-02-08T16:02:05.016Z,4.13
2024-02-08T16:04:47.187Z,0.82
2024-02-08T16:07:17.722Z,2.55
2024-02-08T16:09:50.622Z,1.77
2024-02-08T16:12:20.963Z,4.35
2024-02-08T16:14:50.373Z,2.72
2024-02-08T16:17:38.002Z,2.30
2024-02-08T16:20:33.257Z,1.92
2024-02-08T16:23:14.239Z,2.25
2024-02-08T16:25:49.067Z,2.10
2024-02-08T16:28:24.733Z,2.40
2024-02-08T16:30:59.961Z,2.45
2024-02-08T16:33:35.302Z,1.92
2024-02-08T16:36:22.319Z,0.70
2024-02-08T16:39:15.416Z,2.10
2024-02-08T16:41:50.353Z,2.53
2024-02-08T16:44:30.852Z,1.42
2024-02-08T16:47:00.753Z,1.27
2024-02-08T16:49:31.533Z,1.38
2024-02-08T16:52:05.515Z,2.65
2024-02-08T16:54:35.997Z,1.85
2024-02-08T16:57:08.267Z,1.52
2024-02-08T16:59:50.435Z,2.80
2024-02-08T17:02:22.940Z,1.65
2024-02-08T17:05:13.283Z,3.28
2024-02-08T17:07:46.372Z,1.90
2024-02-08T17:10:34.389Z,2.40
2024-02-08T17:13:11.968Z,1.55
2024-02-08T17:16:01.637Z,3.05
2024-02-08T17:18:35.072Z,2.78
2024-02-08T17:21:34.525Z,2.28
2024-02-08T17:24:08.961Z,2.00
2024-02-08T17:26:36.906Z,2.35
2024-02-08T17:29:11.170Z,3.00
2024-02-08T17:31:43.652Z,3.65
2024-02-08T17:34:22.696Z,2.03
2024-02-08T17:36:55.541Z,1.45
2024-02-08T17:39:26.310Z,2.80
2024-02-08T17:41:54.346Z,2.58
2024-02-08T17:44:21.280Z,11.82
2024-02-08T17:46:54.212Z,10.05
2024-02-08T17:49:21.960Z,2.83
2024-02-08T17:51:57.621Z,1.30
2024-02-08T17:54:29.449Z,3.13
2024-02-08T17:57:12.903Z,3.10
2024-02-08T18:00:17.680Z,4.05
2024-02-08T18:02:44.633Z,6.07
2024-02-08T18:05:15.940Z,9.27
2024-02-08T18:07:45.786Z,3.63
2024-02-08T18:10:17.728Z,4.15
2024-02-08T18:12:45.125Z,2.30
2024-02-08T18:15:23.218Z,2.70
2024-02-08T18:17:55.070Z,3.33
2024-02-08T18:20:22.999Z,3.38
2024-02-08T18:22:50.289Z,12.43
2024-02-08T18:25:30.191Z,2.83
2024-02-08T18:28:01.945Z,3.67
2024-02-08T18:30:30.469Z,3.47
2024-02-08T18:33:07.870Z,3.38
2024-02-08T18:35:35.668Z,7.47
2024-02-08T18:38:09.749Z,3.90
2024-02-08T18:40:38.327Z,3.42
2024-02-08T18:43:06.193Z,4.60
2024-02-08T18:45:38.535Z,3.92
2024-02-08T18:48:06.817Z,2.42
2024-02-08T18:50:34.300Z,4.45
2024-02-08T18:53:07.665Z,15.43
2024-02-08T18:55:40.358Z,3.83
2024-02-08T18:58:10.408Z,5.35
2024-02-08T19:00:38.373Z,4.00
2024-02-08T19:03:08.893Z,10.38
2024-02-08T19:05:43.443Z,3.05
2024-02-08T19:08:19.880Z,15.45
2024-02-08T19:10:54.080Z,8.45
2024-02-08T19:13:42.247Z,4.47
2024-02-08T19:16:16.275Z,5.25
2024-02-08T19:18:47.400Z,5.07
2024-02-08T19:21:28.364Z,3.67
2024-02-08T19:23:56.956Z,2.95
2024-02-08T19:26:26.144Z,3.42
2024-02-08T19:28:53.482Z,3.50
2024-02-08T19:31:20.840Z,5.75
2024-02-08T19:33:52.393Z,4.57
2024-02-08T19:36:25.694Z,4.30
2024-02-08T19:38:54.412Z,4.20
2024-02-08T19:41:22.296Z,4.60
2024-02-08T19:43:52.240Z,4.55
2024-02-08T19:46:20.446Z,3.80
2024-02-08T19:48:53.727Z,5.88
2024-02-08T19:51:26.426Z,5.70
2024-02-08T19:53:56.741Z,8.52
2024-02-08T19:56:24.109Z,5.00
2024-02-08T19:58:54.505Z,10.60
2024-02-08T20:01:27.955Z,5.40
2024-02-08T20:03:55.364Z,6.13
2024-02-08T20:06:22.759Z,6.90
2024-02-08T20:08:55.375Z,6.68
2024-02-08T20:11:25.791Z,5.93
2024-02-08T20:14:07.366Z,6.70
2024-02-08T20:16:37.167Z,6.20
2024-02-08T20:19:10.323Z,5.55
2024-02-08T20:21:39.098Z,5.05
2024-02-08T20:24:09.051Z,5.93
2024-02-08T20:26:37.702Z,5.10
2024-02-08T20:29:05.653Z,5.97
2024-02-08T20:31:33.319Z,6.38
2024-02-08T20:34:00.226Z,6.60
2024-02-08T20:36:26.981Z,6.15
2024-02-08T20:38:56.676Z,6.43
2024-02-08T20:41:26.498Z,5.55
2024-02-08T20:43:56.947Z,6.53
2024-02-08T20:46:24.121Z,7.50
2024-02-08T20:48:55.698Z,7.93
2024-02-08T20:51:23.259Z,5.43
2024-02-08T20:53:50.082Z,5.90
2024-02-08T20:56:29.338Z,7.13
2024-02-08T20:58:59.044Z,10.30
2024-02-08T21:01:26.406Z,7.60
2024-02-08T21:03:53.526Z,7.43
2024-02-08T21:06:23.319Z,7.57
2024-02-08T21:08:51.312Z,9.15
2024-02-08T21:11:20.398Z,8.63
2024-02-08T21:13:50.255Z,10.18
2024-02-08T21:16:20.894Z,12.10
2024-02-08T21:18:48.428Z,8.85
2024-02-08T21:21:15.530Z,14.05
2024-02-08T21:23:44.845Z,10.63
2024-02-08T21:26:16.102Z,8.45
2024-02-08T21:28:48.102Z,9.95
2024-02-08T21:31:19.250Z,9.80
2024-02-08T21:33:51.801Z,9.40
2024-02-08T21:36:22.151Z,10.55
2024-02-08T21:38:50.249Z,13.52
2024-02-08T21:41:17.523Z,11.48
2024-02-08T21:43:48.629Z,13.02
2024-02-08T21:46:15.694Z,11.52
2024-02-08T21:48:42.954Z,12.30
2024-02-08T21:51:09.920Z,11.55
2024-02-08T21:53:36.766Z,11.35
2024-02-08T21:56:03.597Z,11.98
2024-02-08T21:58:32.149Z,12.07
